Main page
METAR-TAF:

METAR-TAF

Airports :

Daviess County Airport

Washington, Indiana, United States

latitude: 38-42-02N, longitude: 087-07-47W, elevation: 472 ft

Current weather observation

The report was made 24 minutes ago, at 12:55 UTC
Wind 3 mph from the South
Temperature 70°F
Humidity 83%
Pressure 29.95 in. Hg
Visibility: 10 miles
Scattered clouds at a height of 11000 ft

METAR: KDCY 281255Z AUTO 18003KT 10SM SCT110 21/18 A2995 RMK AO2 T02070180

Time: 09:19 (13:19 UTC)


TAF: missing

Weather observations and forecasts of more than 4000 airports (METAR and TAF reports).

The available stations are represented by yellow and red dots on the map.

Hover mouse over dot to see the name of the station.

Then click to see weather observations and forecasts.

To change the map : click on the green buttons with a black cross to zoom in, on the green button with a dash to zoom out, or on the green arrows for adjacent maps.


METAR-TAF: